ADDS METAR Data INFO
IDs: Format: Raw Decoded Include TAF

Data at: 0505 UTC 18 Feb 2018

KHZY 180453Z AUTO 24006KT 6SM BR BKN007 BKN022 OVC085 M01/M02 A3001 RMK AO2 SLP173 T10111022 410061056
KHZY 180430Z AUTO 22005KT 6SM BR FEW008 BKN022 OVC085 M02/M03 A3000 RMK AO2 T10171028
KHZY 180406Z AUTO 20003KT 5SM BR BKN023 OVC100 M02/M03 A2999 RMK AO2 T10171028
KHZY 180353Z AUTO 20004KT 4SM BR FEW025 OVC095 M02/M03 A2999 RMK AO2 SLP166 T10171028
KHZY 180253Z AUTO 17004KT 8SM OVC095 M02/M03 A2998 RMK AO2 SNE33 SLP163 P0000 60000 T10171028 58012
KHZY 180153Z AUTO 16003KT 4SM -SN BR BKN050 OVC070 M02/M03 A3000 RMK AO2 SNB09 SLP169 P0000 T10171033
KHZY 180053Z AUTO 00000KT 8SM OVC065 M01/M03 A3001 RMK AO2 SNE48 SLP173 P0000 T10111033
KHZY 172353Z AUTO 00000KT 4SM -SN FEW034 BKN041 OVC055 M01/M04 A3002 RMK AO2 SNB17 SLP176 P0000 60000 T10111044 11006 21017 55005
KHZY 172253Z AUTO 19004KT 10SM BKN031 OVC070 M01/M06 A3001 RMK AO2 SLP171 T10061056
KHZY 172231Z AUTO 21005KT 10SM OVC030 M01/M06 A3001 RMK AO2 T10061056
KHZY 172153Z AUTO 17008KT 10SM BKN029 OVC090 M01/M06 A3000 RMK AO2 SLP169 T10111056
KHZY 172116Z AUTO 17007KT 10SM SCT029 OVC110 M01/M06 A3002 RMK AO2 T10111056
KHZY 172053Z AUTO 17009KT 10SM OVC027 M01/M06 A3004 RMK AO2 SLP183 T10111056 56020
KHZY 172007Z AUTO 19007KT 10SM BKN027 OVC120 M01/M06 A3005 RMK AO2 T10111061
KHZY 171953Z AUTO 17008KT 10SM FEW027 BKN120 M01/M06 A3005 RMK AO2 SLP186 T10111061
KHZY 171928Z AUTO 17007KT 10SM SCT027 BKN120 M01/M06 A3005 RMK AO2 T10111061
KHZY 171853Z AUTO 19010KT 10SM BKN027 OVC110 M01/M06 A3006 RMK AO2 SLP192 T10111061
KHZY 171833Z AUTO 17008KT 10SM BKN028 M02/M07 A3007 RMK AO2 T10171067
KHZY 171753Z AUTO 17006KT 10SM OVC110 M02/M07 A3009 RMK AO2 SLP203 T10171067 11017 21028 58040
KHZY 171710Z AUTO 15008KT 10SM FEW027 M02/M07 A3013 RMK AO2 PRESFR T10171067
KHZY 171653Z AUTO 17007KT 10SM BKN028 M02/M07 A3016 RMK AO2 SLP225 T10171067
KHZY 171641Z AUTO 16006KT 10SM BKN028 M02/M07 A3016 RMK AO2 T10171067
KHZY 171553Z AUTO 17009KT 10SM FEW028 M02/M08 A3017 RMK AO2 SLP230 T10171078
KHZY 171506Z AUTO 19008KT 10SM OVC029 M02/M07 A3021 RMK AO2 T10171067
KHZY 171453Z AUTO 19007KT 10SM OVC030 M02/M07 A3021 RMK AO2 SLP244 T10171067 58015
KHZY 171353Z AUTO 17006KT 10SM OVC032 M02/M06 A3024 RMK AO2 SLP253 T10221061
KHZY 171253Z AUTO 17006KT 10SM OVC031 M03/M07 A3025 RMK AO2 SLP256 T10281067
KHZY 171153Z AUTO 15006KT 10SM OVC033 M03/M07 A3026 RMK AO2 SLP258 T10281072 11028 21056 58007
KHZY 171053Z AUTO 16006KT 10SM OVC032 M03/M07 A3027 RMK AO2 SLP263 T10331072
KHZY 170953Z AUTO 16006KT 10SM OVC032 M04/M07 A3028 RMK AO2 SLP266 T10391072
KHZY 170853Z AUTO 17006KT 10SM FEW034 M06/M08 A3028 RMK AO2 SLP266 T10561078 50001
KHZY 170753Z AUTO 17005KT 10SM SCT036 M05/M08 A3029 RMK AO2 SLP269 T10501078
KHZY 170653Z AUTO 19005KT 10SM BKN038 M05/M08 A3030 RMK AO2 SLP272 T10501078
KHZY 170553Z AUTO 18004KT 10SM CLR M06/M08 A3028 RMK AO2 SLP265 T10561078 11028 21056 58001
KHZY 170453Z AUTO 18004KT 10SM CLR M06/M08 A3028 RMK AO2 SLP267 T10561078 400781056
KHZY 170353Z AUTO 18004KT 10SM CLR M05/M08 A3028 RMK AO2 SLP265 T10501078
KHZY 170253Z AUTO 00000KT 10SM CLR M05/M08 A3028 RMK AO2 SLP265 T10501078 52010
KHZY 170153Z AUTO 00000KT 10SM CLR M04/M09 A3027 RMK AO2 SLP261 T10441089
KHZY 170053Z AUTO 36005KT 10SM OVC039 M03/M09 A3026 RMK AO2 SLP258 T10331089
KHZY 162353Z AUTO 34006KT 10SM OVC037 M03/M08 A3025 RMK AO2 SNB07E17 SLP253 P0000 60000 T10281083 11011 21033 51036
KHZY 162253Z AUTO 34007KT 9SM FEW024 OVC033 M03/M07 A3023 RMK AO2 SLP246 T10281072
KHZY 162219Z AUTO 34009KT 10SM OVC030 M03/M07 A3020 RMK AO2 T10281067
KHZY 162153Z AUTO 33010KT 10SM OVC026 M03/M07 A3019 RMK AO2 SLP232 T10281067
KHZY 162053Z AUTO 32016G23KT 10SM OVC020 M02/M07 A3014 RMK AO2 SLP215 T10221067 53039
KHZY 161953Z AUTO 32013G18KT 10SM OVC020 M02/M06 A3009 RMK AO2 SLP197 T10171056
KHZY 161853Z AUTO 33011G23KT 10SM OVC019 M02/M05 A3006 RMK AO2 SLP185 T10171050
KHZY 161753Z AUTO 33016G25KT 10SM OVC017 M02/M04 A3002 RMK AO2 SLP174 T10171044 10011 21017 51032
KHZY 161728Z AUTO 33011G23KT 10SM OVC016 M01/M04 A3002 RMK AO2 T10111044